Time;durP1;ratioP1;P1;durP2;ratioP2;P2;SDS_P1;SDS_P2;PMS_P1;PMS_P2;Temp;Humidity;BMP_temperature;BMP_pressure;BME280_temperature;BME280_humidity;BME280_pressure;Samples;Min_cycle;Max_cycle;Signal;HPM_P1;HPM_P2
2022/01/04 00:01:58;;;;;;;10.02;6.60;;;7.70;85.70;;;;;;5036102;28;20026;-39
2022/01/04 00:04:25;;;;;;;9.93;6.82;;;7.60;85.80;;;;;;5035573;28;20041;-39
2022/01/04 00:06:51;;;;;;;12.20;7.28;;;7.60;86.00;;;;;;5035739;28;20042;-37
2022/01/04 00:09:16;;;;;;;12.57;6.70;;;7.60;86.20;;;;;;5035658;28;20045;-37
2022/01/04 00:14:08;;;;;;;9.07;6.10;;;7.60;86.40;;;;;;5035562;28;20030;-39
2022/01/04 00:16:34;;;;;;;12.45;6.80;;;7.60;86.60;;;;;;5035912;28;20299;-36
2022/01/04 00:19:00;;;;;;;9.10;6.38;;;7.50;86.60;;;;;;5035873;28;20044;-38
2022/01/04 00:21:25;;;;;;;10.48;6.45;;;7.50;86.60;;;;;;5035390;28;20025;-36
2022/01/04 00:23:51;;;;;;;9.77;6.18;;;7.50;86.70;;;;;;5035889;28;20140;-39
2022/01/04 00:26:17;;;;;;;11.57;6.60;;;7.50;86.90;;;;;;5035278;28;20071;-38
2022/01/04 00:28:42;;;;;;;11.05;7.53;;;7.50;87.00;;;;;;5035705;28;20032;-37
2022/01/04 00:31:08;;;;;;;10.35;6.80;;;7.50;87.10;;;;;;5035180;28;20025;-39
2022/01/04 00:33:33;;;;;;;9.98;6.90;;;7.50;87.30;;;;;;5035788;28;20025;-36
2022/01/04 00:35:59;;;;;;;12.88;7.05;;;7.40;87.40;;;;;;5035228;28;20091;-37
2022/01/04 00:38:25;;;;;;;12.75;7.13;;;7.40;87.40;;;;;;5035498;28;20025;-39
2022/01/04 00:40:50;;;;;;;10.30;7.00;;;7.40;87.50;;;;;;5035519;28;20037;-37
2022/01/04 00:43:16;;;;;;;11.57;7.40;;;7.40;87.60;;;;;;5035617;28;20029;-37
2022/01/04 00:45:42;;;;;;;10.80;7.90;;;7.40;87.70;;;;;;5035644;28;20045;-37
2022/01/04 00:50:36;;;;;;;9.05;7.10;;;7.40;87.80;;;;;;5034838;28;20049;-37
2022/01/04 00:53:02;;;;;;;10.32;7.07;;;7.40;87.80;;;;;;5035224;28;20025;-37
2022/01/04 00:55:28;;;;;;;16.35;7.57;;;7.40;87.80;;;;;;5035364;28;20057;-36
2022/01/04 00:57:55;;;;;;;10.45;6.97;;;7.40;87.90;;;;;;5037771;28;20052;-37
2022/01/04 01:00:22;;;;;;;11.48;6.78;;;7.40;87.90;;;;;;5038996;28;20057;-37
2022/01/04 01:02:48;;;;;;;9.70;6.60;;;7.40;87.90;;;;;;5038816;28;20112;-37
2022/01/04 01:05:15;;;;;;;13.10;6.65;;;7.40;87.90;;;;;;5038990;28;20104;-39
2022/01/04 01:07:41;;;;;;;12.32;7.13;;;7.40;87.90;;;;;;5038954;28;20425;-37
2022/01/04 01:12:41;;;;;;;9.23;6.40;;;7.50;88.00;;;;;;5038942;28;20041;-37
2022/01/04 01:15:07;;;;;;;8.75;6.13;;;7.40;87.90;;;;;;5038455;28;20029;-39
2022/01/04 01:17:34;;;;;;;10.05;6.72;;;7.40;87.90;;;;;;5038443;28;20049;-39
2022/01/04 01:20:00;;;;;;;10.50;6.43;;;7.40;87.80;;;;;;5038493;28;20033;-37
2022/01/04 01:22:26;;;;;;;10.48;6.65;;;7.50;87.80;;;;;;5038441;28;20021;-37
2022/01/04 01:24:52;;;;;;;9.32;5.93;;;7.40;87.80;;;;;;5038330;28;20041;-38
2022/01/04 01:27:18;;;;;;;9.38;6.07;;;7.40;87.70;;;;;;5038381;28;20048;-39
2022/01/04 01:29:44;;;;;;;8.45;5.78;;;7.40;87.60;;;;;;5038134;28;20051;-39
2022/01/04 01:32:10;;;;;;;9.85;6.72;;;7.40;87.60;;;;;;5038474;28;20025;-39
2022/01/04 01:34:36;;;;;;;7.78;6.10;;;7.40;87.70;;;;;;5038370;28;20042;-38
2022/01/04 01:37:02;;;;;;;9.02;5.78;;;7.40;87.70;;;;;;5038091;28;20060;-37
2022/01/04 01:39:27;;;;;;;8.63;5.93;;;7.40;87.60;;;;;;5038264;28;20084;-37
2022/01/04 01:41:53;;;;;;;8.00;5.82;;;7.40;87.50;;;;;;5038010;28;20030;-37
2022/01/04 01:44:21;;;;;;;9.98;5.53;;;7.40;87.50;;;;;;5037728;28;20045;-38
2022/01/04 01:46:47;;;;;;;8.10;4.95;;;7.40;87.40;;;;;;5038276;28;20334;-37
2022/01/04 01:49:12;;;;;;;7.90;4.82;;;7.40;87.30;;;;;;5037481;28;20057;-38
2022/01/04 01:51:38;;;;;;;8.73;4.85;;;7.40;87.30;;;;;;5037932;28;20398;-38
2022/01/04 01:54:04;;;;;;;8.93;5.57;;;7.40;87.20;;;;;;5037943;28;20165;-39
2022/01/04 01:56:31;;;;;;;7.88;5.05;;;7.40;87.10;;;;;;5038047;28;20057;-39
2022/01/04 01:58:57;;;;;;;6.25;4.47;;;7.40;87.00;;;;;;5037997;28;20085;-37
2022/01/04 02:01:23;;;;;;;7.80;4.78;;;7.40;86.90;;;;;;5037727;28;20435;-39
2022/01/04 02:03:48;;;;;;;9.30;4.88;;;7.40;86.90;;;;;;5038053;28;20120;-39
2022/01/04 02:06:15;;;;;;;8.48;5.22;;;7.40;86.90;;;;;;5037253;28;20413;-39
2022/01/04 02:08:41;;;;;;;6.97;4.80;;;7.40;86.90;;;;;;5037756;28;20036;-38
2022/01/04 02:11:08;;;;;;;7.18;4.88;;;7.40;86.80;;;;;;5037419;28;20037;-36
2022/01/04 02:13:34;;;;;;;9.90;4.75;;;7.40;86.80;;;;;;5037508;28;20048;-37
2022/01/04 02:15:59;;;;;;;7.35;5.10;;;7.40;86.90;;;;;;5037378;28;20233;-37
2022/01/04 02:18:25;;;;;;;9.43;5.22;;;7.40;86.90;;;;;;5037540;28;20120;-39
2022/01/04 02:20:51;;;;;;;7.85;4.78;;;7.40;86.90;;;;;;5037618;28;20037;-38
2022/01/04 02:23:16;;;;;;;7.07;4.75;;;7.40;87.00;;;;;;5037652;28;20042;-40
2022/01/04 02:25:42;;;;;;;7.68;5.25;;;7.40;87.00;;;;;;5037577;28;20029;-37
2022/01/04 02:28:08;;;;;;;7.80;5.07;;;7.40;87.00;;;;;;5037555;28;20449;-38
2022/01/04 02:30:33;;;;;;;8.48;4.90;;;7.40;87.00;;;;;;5036968;28;20048;-37
2022/01/04 02:32:59;;;;;;;8.73;4.65;;;7.40;87.00;;;;;;5037143;28;20414;-40
2022/01/04 02:35:30;;;;;;;8.13;5.28;;;7.40;87.00;;;;;;5037162;28;20028;-37
2022/01/04 02:37:57;;;;;;;;;;;7.40;86.90;;;;;;5037842;28;20053;-37
2022/01/04 02:40:24;;;;;;;8.52;4.93;;;7.40;86.60;;;;;;5037134;28;19909;-39
2022/01/04 02:42:50;;;;;;;8.07;4.38;;;7.30;87.00;;;;;;5036920;28;20048;-39
2022/01/04 02:45:16;;;;;;;7.43;4.80;;;7.30;87.20;;;;;;5037057;28;20037;-39
2022/01/04 02:47:42;;;;;;;6.75;4.53;;;7.30;87.40;;;;;;5036809;28;20036;-37
2022/01/04 02:50:10;;;;;;;8.82;5.05;;;7.30;87.50;;;;;;5036192;28;20483;-37
2022/01/04 02:52:38;;;;;;;10.35;5.40;;;7.30;87.70;;;;;;5036699;28;20104;-37
2022/01/04 02:55:06;;;;;;;10.55;5.70;;;7.30;87.80;;;;;;5036645;28;20038;-37
2022/01/04 02:57:32;;;;;;;9.75;6.10;;;7.30;88.00;;;;;;5036597;28;20017;-39
2022/01/04 02:59:57;;;;;;;8.10;5.43;;;7.30;88.10;;;;;;5036189;28;20120;-38
2022/01/04 03:02:24;;;;;;;8.32;5.80;;;7.30;88.20;;;;;;5036466;28;20132;-37
2022/01/04 03:04:50;;;;;;;9.77;5.78;;;7.30;88.40;;;;;;5036561;28;20081;-37
2022/01/04 03:07:16;;;;;;;9.02;5.85;;;7.30;88.50;;;;;;5036487;28;20057;-37
2022/01/04 03:09:42;;;;;;;8.93;6.32;;;7.30;88.60;;;;;;5036174;28;20375;-38
2022/01/04 03:12:09;;;;;;;9.38;6.65;;;7.30;88.70;;;;;;5036751;28;20018;-38
2022/01/04 03:14:34;;;;;;;11.07;7.07;;;7.30;89.00;;;;;;5036518;28;20159;-38
2022/01/04 03:17:01;;;;;;;8.70;6.40;;;7.30;89.10;;;;;;5036607;28;20045;-39
2022/01/04 03:19:26;;;;;;;11.35;7.15;;;7.30;89.10;;;;;;5035935;28;20128;-39
2022/01/04 03:21:52;;;;;;;9.23;6.40;;;7.30;89.20;;;;;;5036489;28;20379;-37
2022/01/04 03:24:18;;;;;;;10.40;6.65;;;7.30;89.10;;;;;;5036079;28;20402;-40
2022/01/04 03:26:44;;;;;;;9.57;6.50;;;7.30;89.30;;;;;;5036428;28;20021;-37
2022/01/04 03:29:13;;;;;;;12.95;6.70;;;7.30;89.20;;;;;;5035742;28;20110;-39
2022/01/04 03:31:39;;;;;;;8.68;6.28;;;7.30;89.20;;;;;;5035846;28;20063;-37
2022/01/04 03:34:05;;;;;;;9.13;6.00;;;7.30;89.30;;;;;;5035925;28;20040;-38
2022/01/04 03:36:32;;;;;;;7.85;5.93;;;7.30;89.10;;;;;;5036260;28;20073;-37
2022/01/04 03:38:58;;;;;;;10.38;6.07;;;7.30;89.10;;;;;;5036282;28;20029;-37
2022/01/04 03:41:26;;;;;;;9.73;6.55;;;7.20;89.00;;;;;;5035939;28;20361;-37
2022/01/04 03:43:52;;;;;;;8.55;5.60;;;7.20;89.10;;;;;;5035980;28;20037;-37
2022/01/04 03:46:18;;;;;;;7.40;5.72;;;7.20;89.00;;;;;;5035886;28;20029;-37
2022/01/04 03:48:45;;;;;;;10.13;5.22;;;7.20;89.00;;;;;;5035740;28;20315;-38
2022/01/04 03:51:11;;;;;;;9.98;5.53;;;7.20;88.90;;;;;;5035477;28;20025;-39
2022/01/04 03:53:37;;;;;;;7.38;5.43;;;7.20;88.70;;;;;;5035760;28;20046;-37
2022/01/04 03:56:03;;;;;;;10.65;6.13;;;7.20;88.60;;;;;;5035483;28;20025;-37
2022/01/04 03:58:29;;;;;;;8.43;5.25;;;7.20;88.60;;;;;;5035707;28;20029;-37
2022/01/04 04:00:55;;;;;;;6.95;5.15;;;7.10;88.70;;;;;;5035463;28;20044;-37
2022/01/04 04:03:21;;;;;;;7.47;5.50;;;7.10;88.60;;;;;;5036239;28;20030;-38
2022/01/04 04:05:46;;;;;;;6.90;5.32;;;7.10;88.70;;;;;;5035836;28;20410;-39
2022/01/04 04:08:12;;;;;;;6.85;4.75;;;7.00;88.90;;;;;;5035850;28;20049;-37
2022/01/04 04:10:38;;;;;;;8.27;5.18;;;7.00;89.10;;;;;;5035752;28;20038;-37
2022/01/04 04:13:04;;;;;;;8.48;5.40;;;7.00;89.30;;;;;;5035866;28;20052;-39
2022/01/04 04:15:29;;;;;;;8.15;5.40;;;7.00;89.40;;;;;;5035839;28;20045;-37
2022/01/04 04:17:55;;;;;;;7.28;5.32;;;7.00;89.60;;;;;;5035963;28;20064;-38
2022/01/04 04:20:21;;;;;;;6.57;4.75;;;7.00;89.60;;;;;;5035721;28;20069;-37
2022/01/04 04:22:47;;;;;;;7.53;5.13;;;7.00;89.70;;;;;;5035528;28;20029;-40
2022/01/04 04:25:13;;;;;;;8.43;5.90;;;7.00;89.70;;;;;;5035356;28;20033;-37
2022/01/04 04:27:39;;;;;;;9.27;4.63;;;7.00;89.70;;;;;;5035595;28;20034;-38
2022/01/04 04:30:05;;;;;;;8.38;5.00;;;7.00;89.60;;;;;;5035357;28;20033;-39
2022/01/04 04:32:31;;;;;;;7.50;4.90;;;7.00;89.50;;;;;;5037522;28;20036;-40
2022/01/04 04:34:57;;;;;;;6.20;4.38;;;7.10;89.60;;;;;;5039295;28;20034;-39
2022/01/04 04:37:23;;;;;;;7.18;4.65;;;7.10;89.50;;;;;;5039725;28;20409;-38
2022/01/04 04:39:49;;;;;;;6.88;4.70;;;7.10;89.40;;;;;;5039264;28;20041;-38
2022/01/04 04:42:15;;;;;;;6.43;4.55;;;7.10;89.30;;;;;;5039096;28;20329;-38
2022/01/04 04:44:41;;;;;;;6.78;4.95;;;7.10;89.20;;;;;;5039180;28;20038;-39
2022/01/04 04:47:06;;;;;;;6.95;5.22;;;7.10;89.20;;;;;;5039112;28;20414;-40
2022/01/04 04:49:32;;;;;;;6.78;3.83;;;7.10;89.20;;;;;;5038321;28;20089;-38
2022/01/04 04:51:59;;;;;;;6.80;4.63;;;7.10;89.30;;;;;;5039231;28;20026;-38
2022/01/04 04:54:26;;;;;;;9.60;4.63;;;7.10;89.30;;;;;;5038991;28;20342;-38
2022/01/04 04:56:52;;;;;;;6.75;4.30;;;7.10;89.30;;;;;;5038888;28;20032;-39
2022/01/04 04:59:17;;;;;;;5.35;4.07;;;7.10;89.20;;;;;;5038811;28;20307;-37
2022/01/04 05:01:43;;;;;;;9.48;4.28;;;7.10;89.00;;;;;;5038829;28;20029;-40
2022/01/04 05:04:08;;;;;;;4.65;3.50;;;7.10;88.90;;;;;;5038521;28;20037;-39
2022/01/04 05:06:34;;;;;;;6.57;4.18;;;7.10;88.80;;;;;;5038601;28;20025;-39
2022/01/04 05:09:00;;;;;;;5.85;3.60;;;7.10;88.80;;;;;;5037516;28;20030;-37
2022/01/04 05:11:26;;;;;;;5.28;3.70;;;7.10;88.70;;;;;;5038280;28;20033;-37
2022/01/04 05:13:52;;;;;;;6.20;3.88;;;7.10;88.60;;;;;;5038818;28;20053;-37
2022/01/04 05:16:18;;;;;;;6.95;3.78;;;7.10;88.50;;;;;;5038643;28;20025;-38
2022/01/04 05:18:43;;;;;;;6.20;3.63;;;7.10;88.50;;;;;;5038726;28;20428;-39
2022/01/04 05:21:09;;;;;;;5.15;3.33;;;7.10;88.40;;;;;;5038138;28;20421;-37
2022/01/04 05:23:35;;;;;;;7.43;4.10;;;7.10;88.40;;;;;;5038333;28;20028;-38
2022/01/04 05:26:00;;;;;;;6.40;3.20;;;7.10;88.30;;;;;;5038105;28;20030;-38
2022/01/04 05:28:26;;;;;;;8.15;3.83;;;7.10;88.10;;;;;;5038469;28;20441;-38
2022/01/04 05:30:52;;;;;;;5.30;3.22;;;7.00;88.10;;;;;;5037961;28;20029;-37
2022/01/04 05:33:17;;;;;;;5.72;2.90;;;7.00;88.10;;;;;;5038200;28;20080;-37
2022/01/04 05:35:43;;;;;;;5.00;2.90;;;7.00;88.10;;;;;;5038301;28;20025;-37
2022/01/04 05:38:09;;;;;;;4.22;3.13;;;7.00;88.30;;;;;;5037952;28;20079;-39
2022/01/04 05:40:34;;;;;;;6.30;3.55;;;6.90;88.40;;;;;;5038216;28;20061;-37
2022/01/04 05:43:00;;;;;;;4.50;3.10;;;6.90;88.60;;;;;;5048643;28;20051;-37
2022/01/04 05:45:28;;;;;;;5.72;3.20;;;6.90;88.80;;;;;;5037992;28;20087;-39
2022/01/04 05:47:54;;;;;;;4.45;2.80;;;6.90;88.90;;;;;;5037928;28;20025;-40
2022/01/04 05:50:19;;;;;;;6.10;3.10;;;6.90;89.00;;;;;;5037219;28;20060;-39
2022/01/04 05:52:45;;;;;;;5.88;3.08;;;6.90;89.10;;;;;;5037911;28;20112;-40
2022/01/04 05:55:11;;;;;;;4.47;2.92;;;6.90;89.10;;;;;;5037877;28;20314;-37
2022/01/04 05:57:36;;;;;;;6.35;2.70;;;6.90;89.10;;;;;;5037770;28;20105;-38
2022/01/04 06:00:04;;;;;;;6.22;3.45;;;6.90;89.10;;;;;;5037483;28;20057;-39
2022/01/04 06:02:29;;;;;;;5.60;3.10;;;6.90;89.10;;;;;;5037708;28;20053;-37
2022/01/04 06:04:55;;;;;;;5.20;3.47;;;6.90;89.20;;;;;;5037275;28;20091;-37
2022/01/04 06:07:20;;;;;;;9.30;3.90;;;7.00;89.20;;;;;;5036483;28;20112;-37
2022/01/04 06:09:49;;;;;;;4.97;3.50;;;7.00;89.20;;;;;;5037097;28;20049;-37
2022/01/04 06:15:01;;;;;;;6.60;4.30;;;7.00;89.30;;;;;;5037324;28;20408;-39
2022/01/04 06:17:32;;;;;;;8.52;4.53;;;7.00;89.20;;;;;;5037440;28;20056;-37
2022/01/04 06:19:58;;;;;;;7.68;4.63;;;7.00;89.20;;;;;;5045167;28;20055;-39
2022/01/04 06:22:25;;;;;;;6.90;4.78;;;7.00;89.20;;;;;;5040345;28;20035;-39
2022/01/04 06:24:52;;;;;;;6.72;4.57;;;7.00;89.20;;;;;;5036867;28;20062;-37
2022/01/04 06:27:18;;;;;;;6.38;4.55;;;7.10;89.20;;;;;;5036976;28;20033;-40
2022/01/04 06:29:45;;;;;;;10.90;5.65;;;7.10;89.20;;;;;;5036525;28;20406;-37
2022/01/04 06:32:12;;;;;;;11.82;5.82;;;7.10;89.30;;;;;;5037087;28;20029;-37
2022/01/04 06:34:39;;;;;;;7.00;5.15;;;7.10;89.20;;;;;;5037025;28;20091;-37
2022/01/04 06:37:06;;;;;;;13.10;6.00;;;7.10;89.20;;;;;;5036949;28;20030;-39
2022/01/04 06:39:32;;;;;;;10.27;5.72;;;7.10;89.20;;;;;;5036541;28;20116;-40
2022/01/04 06:41:58;;;;;;;12.40;6.72;;;7.10;89.20;;;;;;5036956;28;20140;-38
2022/01/04 06:44:24;;;;;;;10.20;5.97;;;7.10;89.20;;;;;;5036549;28;20137;-37
2022/01/04 06:46:51;;;;;;;9.43;5.78;;;7.10;89.10;;;;;;5036697;28;20477;-39
2022/01/04 06:49:18;;;;;;;9.55;5.20;;;7.20;89.20;;;;;;5036116;28;20393;-39
2022/01/04 06:51:46;;;;;;;12.25;5.75;;;7.20;89.20;;;;;;5036743;28;20025;-39
2022/01/04 06:54:14;;;;;;;10.82;6.00;;;7.20;89.30;;;;;;5035821;28;20029;-37
2022/01/04 06:56:40;;;;;;;12.02;5.95;;;7.20;89.50;;;;;;5036479;28;20049;-39
2022/01/04 06:59:06;;;;;;;12.07;6.55;;;7.20;89.60;;;;;;5036519;28;20092;-40
2022/01/04 07:01:33;;;;;;;12.13;7.53;;;7.20;89.80;;;;;;5036416;28;20025;-39
2022/01/04 07:03:59;;;;;;;13.95;7.78;;;7.20;89.90;;;;;;5036277;28;20029;-37
2022/01/04 07:06:25;;;;;;;14.20;8.02;;;7.20;90.00;;;;;;5036050;28;20025;-38
2022/01/04 07:08:50;;;;;;;13.88;8.40;;;7.20;90.10;;;;;;5036332;28;20091;-37
2022/01/04 07:11:16;;;;;;;19.70;9.80;;;7.20;90.10;;;;;;5035830;28;20033;-37
2022/01/04 07:13:42;;;;;;;19.42;8.82;;;7.20;90.20;;;;;;5036083;28;20018;-38
2022/01/04 07:16:08;;;;;;;16.13;9.27;;;7.20;90.30;;;;;;5036041;28;20260;-40
2022/01/04 07:18:34;;;;;;;17.50;9.65;;;7.20;90.30;;;;;;5036046;28;20105;-37
2022/01/04 07:21:00;;;;;;;11.95;8.05;;;7.20;90.40;;;;;;5035947;28;20128;-38
2022/01/04 07:23:25;;;;;;;13.60;8.95;;;7.20;90.40;;;;;;5036155;28;20322;-37
2022/01/04 07:25:51;;;;;;;20.60;12.85;;;7.30;90.40;;;;;;5035362;28;20120;-37
2022/01/04 07:28:18;;;;;;;16.45;8.60;;;7.30;90.50;;;;;;5036184;28;20037;-40
2022/01/04 07:30:45;;;;;;;15.23;8.43;;;7.30;90.50;;;;;;5035400;28;20329;-38
2022/01/04 07:33:11;;;;;;;23.20;8.30;;;7.30;90.50;;;;;;5036147;28;20025;-38
2022/01/04 07:35:37;;;;;;;13.77;7.93;;;7.30;90.50;;;;;;5036034;28;20033;-38
2022/01/04 07:38:03;;;;;;;15.27;7.90;;;7.30;90.60;;;;;;5036095;28;20051;-40
2022/01/04 07:40:29;;;;;;;14.00;7.57;;;7.30;90.60;;;;;;5035893;28;20041;-40
2022/01/04 07:42:59;;;;;;;12.60;7.45;;;7.30;90.60;;;;;;5034788;28;20025;-40
2022/01/04 07:45:33;;;;;;;17.38;7.80;;;7.30;90.50;;;;;;5038136;28;20112;-37
2022/01/04 07:47:59;;;;;;;11.35;6.95;;;7.30;90.40;;;;;;5044580;28;20307;-40
2022/01/04 07:50:26;;;;;;;12.90;7.78;;;7.30;90.40;;;;;;5035204;28;20099;-39
2022/01/04 07:52:51;;;;;;;15.10;8.23;;;7.40;90.50;;;;;;5036070;28;20032;-39
2022/01/04 07:55:17;;;;;;;14.88;7.78;;;7.40;90.60;;;;;;5035846;28;20029;-37
2022/01/04 07:57:44;;;;;;;9.75;6.82;;;7.40;90.60;;;;;;5035653;28;20405;-40
2022/01/04 08:00:12;;;;;;;11.38;6.90;;;7.50;90.50;;;;;;5035325;28;20034;-40
2022/01/04 08:02:40;;;;;;;10.82;7.18;;;7.50;90.60;;;;;;5035124;28;20030;-37
2022/01/04 08:05:06;;;;;;;13.50;7.45;;;7.50;90.20;;;;;;5035159;28;20040;-40
2022/01/04 08:07:32;;;;;;;10.77;6.68;;;7.50;90.10;;;;;;5038920;28;20033;-38
2022/01/04 08:09:58;;;;;;;11.77;6.93;;;7.60;90.00;;;;;;5039159;28;20318;-37
2022/01/04 08:12:23;;;;;;;10.73;6.60;;;7.60;90.00;;;;;;5039423;28;20104;-40
2022/01/04 08:14:49;;;;;;;11.82;7.32;;;7.60;90.00;;;;;;5038866;28;20037;-38
2022/01/04 08:17:15;;;;;;;10.02;6.45;;;7.60;90.00;;;;;;5039674;28;20028;-38
2022/01/04 08:19:40;;;;;;;12.90;6.78;;;7.60;89.90;;;;;;5039256;28;20051;-38
2022/01/04 08:22:06;;;;;;;12.52;7.07;;;7.70;89.70;;;;;;5039196;28;20475;-40
2022/01/04 08:24:32;;;;;;;9.63;5.97;;;7.70;89.60;;;;;;5039454;28;20044;-38
2022/01/04 08:26:57;;;;;;;10.90;6.55;;;7.70;89.40;;;;;;5040961;28;20394;-39
2022/01/04 08:29:24;;;;;;;11.50;5.78;;;7.70;89.00;;;;;;5047724;28;20116;-37
2022/01/04 08:31:50;;;;;;;18.60;6.25;;;7.80;89.00;;;;;;5039172;28;20080;-40
2022/01/04 08:34:16;;;;;;;12.40;6.35;;;7.80;88.90;;;;;;5038971;28;20033;-38
2022/01/04 08:36:42;;;;;;;9.35;6.50;;;7.80;88.70;;;;;;5038892;28;20107;-40
2022/01/04 08:39:14;;;;;;;9.88;6.32;;;7.90;88.40;;;;;;5039258;28;20104;-38
2022/01/04 08:41:45;;;;;;;11.75;6.45;;;7.90;88.10;;;;;;5037902;28;20389;-37
2022/01/04 08:44:11;;;;;;;10.10;5.78;;;7.90;88.00;;;;;;5038960;28;20037;-40
2022/01/04 08:46:39;;;;;;;11.13;6.43;;;7.90;87.60;;;;;;5039354;28;20029;-40
2022/01/04 08:49:07;;;;;;;8.88;6.15;;;8.00;87.40;;;;;;5038417;28;20139;-39
2022/01/04 08:51:34;;;;;;;8.05;5.68;;;8.00;86.90;;;;;;5038747;28;20026;-40
2022/01/04 08:53:59;;;;;;;11.35;6.20;;;8.00;86.60;;;;;;5039043;28;20037;-37
2022/01/04 08:56:26;;;;;;;10.70;6.25;;;8.00;86.60;;;;;;5038697;28;20100;-39
2022/01/04 08:58:51;;;;;;;9.95;6.28;;;8.00;86.40;;;;;;5038887;28;20033;-37
2022/01/04 09:01:17;;;;;;;9.57;5.55;;;8.00;86.20;;;;;;5042442;28;20096;-37
2022/01/04 09:03:43;;;;;;;10.60;6.32;;;8.00;85.90;;;;;;5038568;28;20029;-37
2022/01/04 09:06:13;;;;;;;13.85;6.25;;;8.00;85.90;;;;;;5038214;28;20486;-37
2022/01/04 09:08:39;;;;;;;10.15;5.70;;;8.00;85.80;;;;;;5038793;28;20036;-37
2022/01/04 09:11:05;;;;;;;9.43;5.63;;;8.00;85.70;;;;;;5037918;28;20449;-40
2022/01/04 09:13:36;;;;;;;9.52;5.25;;;8.10;85.50;;;;;;5038389;28;20413;-39
2022/01/04 09:18:48;;;;;;;14.80;5.63;;;8.10;85.00;;;;;;5037982;28;20422;-40
2022/01/04 09:21:17;;;;;;;7.38;4.63;;;8.20;85.00;;;;;;5038363;28;20105;-41
2022/01/04 09:23:45;;;;;;;7.55;4.82;;;8.20;84.70;;;;;;5038223;28;20033;-40
2022/01/04 09:26:12;;;;;;;11.13;4.90;;;8.20;84.30;;;;;;5037894;28;20378;-38
2022/01/04 09:28:39;;;;;;;9.10;4.85;;;8.20;83.80;;;;;;5038595;28;20040;-37
2022/01/04 09:31:05;;;;;;;8.20;4.70;;;8.20;83.90;;;;;;5037638;28;20036;-40
2022/01/04 09:33:31;;;;;;;8.93;4.57;;;8.30;83.80;;;;;;5038484;28;20029;-38
2022/01/04 09:35:57;;;;;;;9.52;4.70;;;8.30;83.50;;;;;;5038099;28;20053;-38
2022/01/04 09:38:23;;;;;;;9.50;5.07;;;8.30;82.70;;;;;;5038298;28;20057;-40
2022/01/04 09:40:50;;;;;;;7.15;4.45;;;8.30;82.70;;;;;;5038160;28;20033;-38
2022/01/04 09:43:16;;;;;;;12.63;7.63;;;8.40;82.70;;;;;;5038265;28;20113;-40
2022/01/04 09:45:42;;;;;;;9.38;4.63;;;8.40;82.40;;;;;;5037972;28;20418;-40
2022/01/04 09:48:09;;;;;;;7.80;5.22;;;8.50;82.00;;;;;;5037560;28;20120;-40
2022/01/04 09:50:36;;;;;;;7.97;4.50;;;8.50;81.60;;;;;;5036721;28;20045;-37
2022/01/04 09:53:06;;;;;;;8.40;5.05;;;8.60;81.30;;;;;;5037179;28;20021;-37
2022/01/04 09:55:33;;;;;;;7.65;4.50;;;8.60;80.90;;;;;;5048652;28;20059;-40
2022/01/04 09:57:59;;;;;;;7.47;4.60;;;8.60;80.70;;;;;;5037446;28;20064;-40
2022/01/04 10:00:25;;;;;;;10.95;4.40;;;8.60;80.40;;;;;;5037457;28;20060;-40
2022/01/04 10:02:51;;;;;;;7.20;4.68;;;8.60;80.40;;;;;;5037512;28;20295;-40
2022/01/04 10:05:29;;;;;;;11.18;5.35;;;8.60;80.30;;;;;;5037431;28;20037;-37
2022/01/04 10:08:05;;;;;;;9.50;4.80;;;8.70;80.40;;;;;;5037493;28;20033;-37
2022/01/04 10:10:32;;;;;;;8.20;5.50;;;8.70;79.70;;;;;;5037014;28;20037;-40
2022/01/04 10:13:01;;;;;;;7.35;3.97;;;8.80;79.60;;;;;;5037222;28;20116;-38
2022/01/04 10:15:47;;;;;;;8.30;4.30;;;8.80;79.20;;;;;;5037065;28;20033;-37
2022/01/04 10:18:13;;;;;;;8.60;4.30;;;8.80;78.90;;;;;;5047101;28;20207;-37
2022/01/04 10:20:45;;;;;;;9.57;4.40;;;8.90;79.20;;;;;;5057344;28;20100;-40
2022/01/04 10:23:12;;;;;;;5.72;3.70;;;8.90;78.80;;;;;;5057199;28;20083;-40
2022/01/04 10:25:39;;;;;;;7.78;3.92;;;9.00;78.20;;;;;;5057068;28;20036;-40
2022/01/04 10:28:05;;;;;;;8.82;3.55;;;9.00;78.10;;;;;;5056894;28;20037;-38
2022/01/04 10:30:36;;;;;;;5.35;3.80;;;9.10;77.70;;;;;;5055622;28;20029;-37
2022/01/04 10:33:10;;;;;;;5.95;3.70;;;9.20;77.00;;;;;;5057042;28;20029;-40
2022/01/04 10:35:43;;;;;;;7.70;4.05;;;9.20;76.10;;;;;;5056878;28;20424;-37
2022/01/04 10:38:18;;;;;;;6.60;3.63;;;9.30;76.00;;;;;;5056415;28;20319;-38
2022/01/04 10:40:51;;;;;;;6.38;4.07;;;9.30;75.60;;;;;;5056550;28;20033;-38
2022/01/04 10:43:23;;;;;;;10.40;4.07;;;9.30;75.10;;;;;;5056454;28;20041;-41
2022/01/04 10:45:50;;;;;;;6.95;4.25;;;9.30;74.90;;;;;;5056380;28;20040;-40
2022/01/04 10:48:21;;;;;;;7.97;4.30;;;9.30;74.60;;;;;;5056297;28;20025;-41
2022/01/04 10:50:50;;;;;;;7.13;4.50;;;9.30;75.20;;;;;;5046719;28;20049;-40
2022/01/04 10:53:22;;;;;;;8.80;4.22;;;9.20;74.50;;;;;;5056566;28;20021;-37
2022/01/04 10:55:50;;;;;;;10.63;4.75;;;9.20;74.70;;;;;;5045127;28;20044;-38
2022/01/04 10:58:22;;;;;;;6.53;4.10;;;9.10;74.60;;;;;;5053183;28;20307;-38
2022/01/04 11:00:53;;;;;;;10.05;4.28;;;9.20;74.80;;;;;;5053190;28;20036;-37
2022/01/04 11:03:24;;;;;;;9.40;4.53;;;9.10;74.60;;;;;;5047304;28;20025;-38
2022/01/04 11:06:36;;;;;;;8.80;4.80;;;9.10;74.50;;;;;;5047392;28;20063;-39
2022/01/04 11:09:04;;;;;;;7.03;4.47;;;9.10;74.40;;;;;;5056102;28;20052;-40
2022/01/04 11:11:30;;;;;;;9.07;4.93;;;9.10;74.40;;;;;;5056030;28;20052;-40
2022/01/04 11:13:57;;;;;;;11.13;4.78;;;9.10;74.30;;;;;;5056400;28;20040;-37
2022/01/04 11:16:25;;;;;;;7.15;4.68;;;9.10;74.40;;;;;;5055954;28;20136;-37
2022/01/04 11:18:53;;;;;;;7.93;4.75;;;9.10;74.20;;;;;;5056290;28;20056;-37
2022/01/04 11:21:21;;;;;;;9.50;4.65;;;9.20;74.00;;;;;;5055761;28;20033;-38
2022/01/04 11:23:48;;;;;;;9.43;4.97;;;9.20;73.80;;;;;;5055814;28;20047;-38
2022/01/04 11:26:15;;;;;;;8.45;4.68;;;9.20;73.40;;;;;;5055244;28;20055;-37
2022/01/04 11:28:44;;;;;;;8.20;5.35;;;9.20;73.30;;;;;;5055943;28;20103;-37
2022/01/04 11:31:12;;;;;;;9.52;4.13;;;9.20;73.40;;;;;;5055126;28;20433;-37
2022/01/04 11:34:15;;;;;;;8.70;4.93;;;9.20;72.20;;;;;;5055784;28;20070;-40
2022/01/04 11:36:49;;;;;;;9.40;4.30;;;9.20;72.00;;;;;;5054433;28;20108;-37
2022/01/04 11:39:41;;;;;;;8.35;4.25;;;9.10;71.60;;;;;;5055611;28;20040;-37
2022/01/04 11:42:10;;;;;;;6.47;4.20;;;9.10;71.60;;;;;;5055174;28;20041;-40
2022/01/04 11:44:47;;;;;;;7.25;4.00;;;9.10;71.30;;;;;;5055792;28;20435;-39
2022/01/04 11:47:23;;;;;;;9.57;4.13;;;9.10;71.40;;;;;;5051728;28;20021;-39
2022/01/04 11:50:16;;;;;;;10.90;4.32;;;9.10;71.50;;;;;;5041956;28;20049;-39
2022/01/04 11:52:45;;;;;;;6.93;3.90;;;9.10;71.10;;;;;;5050741;28;20053;-39
2022/01/04 11:55:36;;;;;;;7.20;4.07;;;9.10;71.50;;;;;;5055570;28;20044;-40
2022/01/04 11:58:17;;;;;;;8.18;4.22;;;9.20;71.40;;;;;;5050809;28;20041;-40
2022/01/04 12:00:45;;;;;;;;;;;9.20;71.20;;;;;;5056061;28;20313;-39
2022/01/04 12:03:18;;;;;;;10.10;4.72;;;9.20;71.30;;;;;;5049215;28;20313;-40
2022/01/04 12:05:56;;;;;;;11.98;6.60;;;9.20;71.50;;;;;;5035525;28;20029;-37
2022/01/04 12:08:24;;;;;;;9.70;4.32;;;9.20;71.60;;;;;;5035604;28;20369;-42
2022/01/04 12:10:51;;;;;;;13.52;5.63;;;9.20;71.60;;;;;;5035170;28;20033;-40
2022/01/04 12:13:21;;;;;;;8.38;5.07;;;9.20;71.20;;;;;;5035582;28;20037;-40
2022/01/04 12:15:51;;;;;;;9.27;4.78;;;9.10;71.70;;;;;;5035351;28;20025;-40
2022/01/04 12:18:23;;;;;;;10.88;6.70;;;9.10;71.20;;;;;;5035169;28;20132;-40
2022/01/04 12:20:48;;;;;;;8.25;4.65;;;9.10;71.20;;;;;;5035464;28;20364;-37
2022/01/04 12:23:26;;;;;;;12.80;4.72;;;9.00;71.20;;;;;;5035573;28;20048;-38
2022/01/04 12:26:10;;;;;;;7.28;4.28;;;8.90;71.20;;;;;;5034902;28;20056;-40
2022/01/04 12:28:38;;;;;;;6.65;4.10;;;8.90;71.10;;;;;;5035538;28;20034;-37
2022/01/04 12:31:13;;;;;;;6.32;4.07;;;8.80;71.40;;;;;;5034600;28;20045;-37
2022/01/04 12:33:46;;;;;;;9.48;4.95;;;8.70;71.40;;;;;;5035225;28;20092;-40
2022/01/04 12:36:25;;;;;;;15.98;8.23;;;8.60;71.50;;;;;;5034691;28;20037;-37
2022/01/04 12:38:53;;;;;;;13.38;5.72;;;8.60;71.80;;;;;;5034921;28;20025;-37
2022/01/04 12:41:20;;;;;;;10.07;4.78;;;8.50;72.00;;;;;;5037747;28;20044;-37
2022/01/04 12:43:46;;;;;;;8.15;4.50;;;8.50;72.10;;;;;;5043188;28;20116;-37
2022/01/04 12:46:13;;;;;;;12.55;4.85;;;8.40;72.20;;;;;;5034846;28;20041;-37
2022/01/04 12:48:53;;;;;;;9.30;5.47;;;8.40;72.40;;;;;;5034967;28;20342;-37
2022/01/04 12:51:30;;;;;;;12.45;5.57;;;8.30;72.50;;;;;;5034873;28;20049;-37
2022/01/04 12:53:58;;;;;;;19.58;6.10;;;8.30;72.60;;;;;;5037524;28;20030;-39
2022/01/04 12:56:24;;;;;;;10.57;5.45;;;8.30;73.00;;;;;;5038462;28;20084;-39
2022/01/04 12:58:50;;;;;;;11.60;5.53;;;8.30;73.20;;;;;;5038830;28;20084;-40
2022/01/04 13:01:27;;;;;;;8.63;5.15;;;8.30;73.30;;;;;;5038049;28;20365;-37
2022/01/04 13:03:53;;;;;;;12.55;6.13;;;8.30;73.30;;;;;;5038642;28;20117;-40
2022/01/04 13:06:19;;;;;;;11.02;6.03;;;8.30;73.50;;;;;;5038451;28;20101;-37
2022/01/04 13:08:55;;;;;;;9.45;5.78;;;8.30;73.60;;;;;;5038485;28;20063;-40